Time;durP1;ratioP1;P1;durP2;ratioP2;P2;SDS_P1;SDS_P2;PMS_P1;PMS_P2;Temp;Humidity;BMP_temperature;BMP_pressure;BME280_temperature;BME280_humidity;BME280_pressure;Samples;Min_cycle;Max_cycle;Signal;HPM_P1;HPM_P2
2023/01/24 00:02:13;;;;;;;19.67;10.80;;;3.10;75.40;;;;;;4225447;27;20405;-85
2023/01/24 00:04:33;;;;;;;19.52;10.82;;;3.10;75.30;;;;;;4224925;28;20061;-85
2023/01/24 00:06:52;;;;;;;24.65;12.27;;;3.10;75.20;;;;;;4220984;28;20731;-85
2023/01/24 00:09:11;;;;;;;21.65;10.82;;;3.10;74.90;;;;;;4219349;27;20074;-85
2023/01/24 00:11:30;;;;;;;21.85;11.23;;;3.10;74.90;;;;;;4223310;28;20089;-85
2023/01/24 00:13:49;;;;;;;21.08;10.90;;;3.10;74.90;;;;;;4223966;27;20069;-85
2023/01/24 00:16:19;;;;;;;20.52;11.88;;;3.10;74.90;;;;;;4220005;28;20627;-85
2023/01/24 00:18:39;;;;;;;20.70;11.70;;;3.10;74.80;;;;;;4222851;28;20031;-85
2023/01/24 00:21:03;;;;;;;23.08;10.43;;;3.10;74.80;;;;;;4216632;28;20397;-85
2023/01/24 00:23:23;;;;;;;20.00;10.77;;;3.10;74.80;;;;;;4223070;28;20130;-85
2023/01/24 00:25:42;;;;;;;20.13;10.90;;;3.10;75.60;;;;;;4207868;28;20038;-85
2023/01/24 00:28:01;;;;;;;19.58;11.13;;;3.10;74.80;;;;;;4223447;27;20042;-85
2023/01/24 00:30:20;;;;;;;24.90;12.30;;;3.10;74.80;;;;;;4206813;28;20125;-85
2023/01/24 00:32:39;;;;;;;24.75;11.48;;;3.10;74.80;;;;;;4211758;28;20046;-86
2023/01/24 00:34:58;;;;;;;21.55;11.15;;;3.10;74.70;;;;;;4220094;27;20508;-86
2023/01/24 00:37:17;;;;;;;21.05;11.23;;;3.10;74.70;;;;;;4222751;27;20039;-85
2023/01/24 00:39:36;;;;;;;21.85;11.48;;;3.10;74.70;;;;;;4222288;27;20035;-86
2023/01/24 00:41:55;;;;;;;18.77;10.02;;;3.10;74.60;;;;;;4225504;28;20038;-86
2023/01/24 00:44:14;;;;;;;20.65;11.65;;;3.10;74.60;;;;;;4219051;27;20030;-85
2023/01/24 00:46:33;;;;;;;21.73;10.68;;;3.10;74.60;;;;;;4218553;27;20085;-85
2023/01/24 00:48:53;;;;;;;23.10;11.43;;;3.10;74.50;;;;;;4217845;28;20043;-85
2023/01/24 00:51:12;;;;;;;21.63;11.95;;;3.10;74.40;;;;;;4211685;28;20075;-85
2023/01/24 00:53:31;;;;;;;19.30;10.52;;;3.10;74.50;;;;;;4223218;27;20034;-85
2023/01/24 00:55:51;;;;;;;18.13;10.20;;;3.10;75.20;;;;;;4210404;28;20035;-85
2023/01/24 00:58:10;;;;;;;19.58;10.15;;;3.00;74.20;;;;;;4230420;27;20035;-85
2023/01/24 01:00:29;;;;;;;16.23;9.45;;;3.00;74.20;;;;;;4203596;27;20090;-85
2023/01/24 01:02:50;;;;;;;12.88;8.38;;;3.00;74.10;;;;;;4212177;28;20043;-85
2023/01/24 01:05:09;;;;;;;18.42;9.55;;;3.00;74.00;;;;;;4217736;28;20081;-85
2023/01/24 01:07:28;;;;;;;17.85;9.73;;;3.00;73.90;;;;;;4204280;28;20075;-85
2023/01/24 01:09:47;;;;;;;13.93;8.45;;;3.00;73.70;;;;;;4220543;28;20050;-85
2023/01/24 01:12:06;;;;;;;15.05;8.63;;;3.00;73.70;;;;;;4218777;28;20609;-85
2023/01/24 01:14:25;;;;;;;13.10;7.63;;;3.00;73.70;;;;;;4219374;28;20066;-85
2023/01/24 01:16:44;;;;;;;12.32;7.65;;;3.00;73.60;;;;;;4219608;28;20413;-85
2023/01/24 01:19:04;;;;;;;15.32;7.40;;;3.00;73.50;;;;;;4221128;28;20035;-86
2023/01/24 01:21:23;;;;;;;14.05;7.80;;;3.00;73.50;;;;;;4222126;27;20080;-84
2023/01/24 01:23:43;;;;;;;14.23;8.15;;;3.00;73.50;;;;;;4220019;27;20050;-85
2023/01/24 01:26:04;;;;;;;13.57;7.80;;;2.90;73.20;;;;;;4209958;28;20112;-84
2023/01/24 01:28:24;;;;;;;15.75;8.60;;;2.90;73.20;;;;;;4223788;28;20091;-85
2023/01/24 01:30:43;;;;;;;17.73;8.75;;;2.90;73.00;;;;;;4221064;27;20034;-85
2023/01/24 01:33:02;;;;;;;14.38;8.23;;;2.90;73.10;;;;;;4223231;27;20465;-85
2023/01/24 01:35:21;;;;;;;14.93;8.07;;;2.90;73.00;;;;;;4218864;28;20112;-85
2023/01/24 01:37:40;;;;;;;16.65;7.63;;;2.90;73.00;;;;;;4221839;28;20111;-86
2023/01/24 01:39:59;;;;;;;16.08;8.20;;;2.90;72.80;;;;;;4215431;28;20031;-85
2023/01/24 01:42:18;;;;;;;12.60;7.25;;;2.90;72.80;;;;;;4201115;28;20036;-87
2023/01/24 01:44:43;;;;;;;13.10;8.13;;;2.90;72.80;;;;;;4220076;28;20453;-85
2023/01/24 01:47:03;;;;;;;14.85;8.23;;;2.90;72.80;;;;;;4222009;28;20042;-85
2023/01/24 01:49:26;;;;;;;14.68;8.30;;;2.90;72.80;;;;;;4207387;28;20063;-85
2023/01/24 01:51:49;;;;;;;12.93;7.72;;;2.90;72.80;;;;;;4210667;28;20053;-85
2023/01/24 01:54:19;;;;;;;15.48;8.55;;;2.90;72.70;;;;;;4223032;28;20034;-85
2023/01/24 01:56:43;;;;;;;16.38;8.38;;;2.90;72.70;;;;;;4220315;28;20039;-85
2023/01/24 01:59:08;;;;;;;14.07;8.02;;;2.80;72.50;;;;;;4220038;28;20038;-85
2023/01/24 02:01:28;;;;;;;14.35;7.38;;;2.80;72.40;;;;;;4222422;27;20362;-85
2023/01/24 02:03:53;;;;;;;14.68;7.60;;;2.80;72.50;;;;;;4220237;28;20037;-85
2023/01/24 02:06:27;;;;;;;15.80;8.20;;;2.80;72.40;;;;;;4218609;28;20131;-85
2023/01/24 02:08:48;;;;;;;14.88;7.95;;;2.80;72.30;;;;;;4218245;28;20571;-85
2023/01/24 02:13:48;;;;;;;16.35;7.85;;;2.80;72.00;;;;;;4223176;28;20035;-84
2023/01/24 02:16:09;;;;;;;12.00;6.90;;;2.80;72.00;;;;;;4218822;28;20036;-85
2023/01/24 02:18:34;;;;;;;15.65;7.32;;;2.80;72.10;;;;;;4207445;28;20031;-85
2023/01/24 02:20:53;;;;;;;14.30;7.43;;;2.70;72.00;;;;;;4218188;28;20042;-85
2023/01/24 02:23:38;;;;;;;11.63;6.85;;;2.70;72.10;;;;;;4206748;28;20034;-85
2023/01/24 02:26:11;;;;;;;15.38;7.55;;;2.70;72.00;;;;;;4221931;28;20078;-85
2023/01/24 02:28:30;;;;;;;14.85;7.13;;;2.70;72.00;;;;;;4212008;28;22034;-85
2023/01/24 02:30:49;;;;;;;15.65;7.55;;;2.70;72.10;;;;;;4204050;28;20047;-84
2023/01/24 02:33:17;;;;;;;13.40;7.65;;;2.80;71.90;;;;;;4209635;28;20051;-85
2023/01/24 02:35:36;;;;;;;12.02;6.65;;;2.70;71.80;;;;;;4224199;28;20543;-85
2023/01/24 02:37:58;;;;;;;15.25;6.55;;;2.70;71.70;;;;;;4216529;28;20030;-85
2023/01/24 02:40:18;;;;;;;13.75;6.82;;;2.70;71.90;;;;;;4221421;28;20045;-85
2023/01/24 02:42:39;;;;;;;14.10;7.80;;;2.70;71.90;;;;;;4223700;28;20115;-84
2023/01/24 02:45:23;;;;;;;15.00;6.97;;;2.70;71.90;;;;;;4223125;28;20066;-85
2023/01/24 02:47:52;;;;;;;14.20;7.38;;;2.70;71.90;;;;;;4222953;28;20046;-85
2023/01/24 02:50:11;;;;;;;16.33;7.03;;;2.70;71.70;;;;;;4208057;28;20142;-85
2023/01/24 02:55:09;;;;;;;13.70;7.70;;;2.70;71.80;;;;;;4217982;28;20546;-85
2023/01/24 03:00:07;;;;;;;14.15;7.43;;;2.70;71.80;;;;;;4220171;28;20070;-84
2023/01/24 03:02:26;;;;;;;15.30;8.20;;;2.70;71.80;;;;;;4216409;28;20039;-86
2023/01/24 03:04:45;;;;;;;17.25;7.53;;;2.70;71.70;;;;;;4218593;28;20034;-85
2023/01/24 03:07:04;;;;;;;16.98;8.55;;;2.70;71.70;;;;;;4223068;28;20035;-85
2023/01/24 03:09:38;;;;;;;16.23;8.63;;;2.70;71.70;;;;;;4222611;28;20042;-85
2023/01/24 03:35:41;;;;;;;14.45;8.00;;;2.60;71.60;;;;;;4221749;28;20061;-85
2023/01/24 03:40:39;;;;;;;14.45;7.90;;;2.60;71.60;;;;;;4221748;27;20169;-84
2023/01/24 03:43:00;;;;;;;13.13;7.28;;;2.60;71.60;;;;;;4221147;27;20043;-85
2023/01/24 03:45:31;;;;;;;14.77;7.70;;;2.60;71.60;;;;;;4221220;28;20519;-85
2023/01/24 03:47:57;;;;;;;18.30;8.02;;;2.60;71.60;;;;;;4222168;28;20099;-86
2023/01/24 03:52:53;;;;;;;16.35;8.07;;;2.60;71.60;;;;;;4225061;27;20037;-85
2023/01/24 03:55:13;;;;;;;15.93;9.25;;;2.60;71.60;;;;;;4224153;27;20077;-86
2023/01/24 03:57:32;;;;;;;17.42;8.68;;;2.60;71.40;;;;;;4224552;28;20073;-85
2023/01/24 03:59:51;;;;;;;18.20;9.18;;;2.60;71.40;;;;;;4207711;28;20094;-86
2023/01/24 04:02:10;;;;;;;15.43;8.23;;;2.60;71.30;;;;;;4223227;28;20038;-86
2023/01/24 04:05:12;;;;;;;16.65;8.60;;;2.50;71.30;;;;;;4209507;27;20036;-85
2023/01/24 04:07:08;;;;;;;18.65;8.85;;;2.50;71.30;;;;;;4223725;27;20633;-86
2023/01/24 04:09:27;;;;;;;17.92;9.23;;;2.50;71.20;;;;;;4224123;27;20081;-85
2023/01/24 04:11:47;;;;;;;18.50;8.68;;;2.60;71.40;;;;;;4221140;27;20061;-85
2023/01/24 04:14:06;;;;;;;17.88;9.10;;;2.60;71.30;;;;;;4215846;28;20054;-84
2023/01/24 04:16:25;;;;;;;17.70;9.50;;;2.50;71.30;;;;;;4230919;27;22030;-85
2023/01/24 04:18:44;;;;;;;18.25;9.25;;;2.50;71.30;;;;;;4224870;27;20077;-85
2023/01/24 04:21:04;;;;;;;16.50;9.20;;;2.50;71.30;;;;;;4210385;28;20068;-85
2023/01/24 04:23:23;;;;;;;15.60;8.70;;;2.50;71.40;;;;;;4208937;28;20039;-85
2023/01/24 04:25:48;;;;;;;15.88;8.27;;;2.50;71.40;;;;;;4221638;27;20101;-85
2023/01/24 04:28:07;;;;;;;18.17;9.13;;;2.50;71.60;;;;;;4220889;27;20120;-85
2023/01/24 04:30:26;;;;;;;14.60;8.25;;;2.50;71.60;;;;;;4225434;28;20035;-84
2023/01/24 04:32:46;;;;;;;17.17;8.00;;;2.50;71.60;;;;;;4220543;28;20042;-85
2023/01/24 04:35:06;;;;;;;19.27;9.70;;;2.50;71.60;;;;;;4209912;28;20448;-85
2023/01/24 04:37:26;;;;;;;19.40;9.57;;;2.60;71.60;;;;;;4221577;28;20076;-85
2023/01/24 04:39:45;;;;;;;17.02;9.18;;;2.60;71.30;;;;;;4208068;28;20437;-85
2023/01/24 04:42:05;;;;;;;18.08;9.90;;;2.50;71.10;;;;;;4224188;27;20109;-86
2023/01/24 04:44:24;;;;;;;18.67;10.30;;;2.50;71.00;;;;;;4206357;28;20555;-85
2023/01/24 04:46:43;;;;;;;17.52;9.43;;;2.50;71.00;;;;;;4205302;28;20516;-85
2023/01/24 04:49:02;;;;;;;17.90;9.68;;;2.50;71.00;;;;;;4222628;28;20396;-85
2023/01/24 04:51:21;;;;;;;16.05;9.32;;;2.50;71.10;;;;;;4221388;28;20045;-85
2023/01/24 04:53:41;;;;;;;17.52;9.18;;;2.50;71.10;;;;;;4210431;28;20043;-86
2023/01/24 04:56:01;;;;;;;18.85;10.30;;;2.50;71.20;;;;;;4224407;27;20072;-86
2023/01/24 04:58:20;;;;;;;17.20;10.65;;;2.40;71.10;;;;;;4225223;27;20050;-85
2023/01/24 05:00:39;;;;;;;18.23;10.73;;;2.50;71.30;;;;;;4206063;28;20050;-86
2023/01/24 05:02:58;;;;;;;19.55;11.23;;;2.40;71.90;;;;;;4223923;28;20038;-85
2023/01/24 05:05:17;;;;;;;18.95;10.10;;;2.40;71.10;;;;;;4212821;28;20043;-85
2023/01/24 05:07:36;;;;;;;21.40;11.07;;;2.40;71.30;;;;;;4214230;28;20059;-85
2023/01/24 05:09:55;;;;;;;18.42;10.82;;;2.40;71.30;;;;;;4215736;28;20627;-85
2023/01/24 05:12:14;;;;;;;18.67;9.93;;;2.40;71.40;;;;;;4223916;28;20070;-85
2023/01/24 05:14:33;;;;;;;17.05;10.02;;;2.40;71.40;;;;;;4222974;27;20424;-86
2023/01/24 05:16:52;;;;;;;16.08;9.82;;;2.40;71.40;;;;;;4228402;27;20058;-85
2023/01/24 05:19:12;;;;;;;17.77;10.30;;;2.40;71.30;;;;;;4206073;28;20127;-85
2023/01/24 05:21:31;;;;;;;16.50;9.68;;;2.40;71.30;;;;;;4225979;27;20042;-85
2023/01/24 05:23:52;;;;;;;16.08;9.25;;;2.40;71.40;;;;;;4223273;28;20473;-85
2023/01/24 05:26:11;;;;;;;13.98;8.00;;;2.40;71.40;;;;;;4221375;28;20078;-85
2023/01/24 05:28:31;;;;;;;17.00;8.88;;;2.40;71.30;;;;;;4222155;28;20039;-85
2023/01/24 05:30:50;;;;;;;16.13;9.15;;;2.40;71.30;;;;;;4225749;28;20409;-85
2023/01/24 05:33:09;;;;;;;17.13;9.73;;;2.40;71.30;;;;;;4211033;28;20564;-86
2023/01/24 05:35:28;;;;;;;21.55;10.68;;;2.40;71.30;;;;;;4219950;27;20059;-85
2023/01/24 05:37:47;;;;;;;19.38;9.88;;;2.40;71.40;;;;;;4223020;27;20115;-85
2023/01/24 05:40:07;;;;;;;19.27;10.23;;;2.30;71.40;;;;;;4223793;28;20035;-85
2023/01/24 05:42:26;;;;;;;20.88;11.27;;;2.30;71.50;;;;;;4218352;27;20058;-86
2023/01/24 05:44:45;;;;;;;16.70;10.65;;;2.40;71.50;;;;;;4224946;27;20116;-85
2023/01/24 05:47:04;;;;;;;27.42;15.07;;;2.40;71.60;;;;;;4211489;28;20545;-85
2023/01/24 05:49:24;;;;;;;28.98;15.40;;;2.30;71.50;;;;;;4222364;28;20061;-85
2023/01/24 05:51:43;;;;;;;27.38;15.32;;;2.30;71.50;;;;;;4228139;28;20070;-85
2023/01/24 05:54:02;;;;;;;25.77;15.00;;;2.40;71.70;;;;;;4220181;28;20076;-86
2023/01/24 05:56:21;;;;;;;15.05;9.77;;;2.40;71.60;;;;;;4221059;27;20038;-85
2023/01/24 05:58:42;;;;;;;14.80;8.07;;;2.30;71.50;;;;;;4220201;28;20081;-86
2023/01/24 06:01:09;;;;;;;14.50;8.07;;;2.30;71.40;;;;;;4227588;27;20074;-86
2023/01/24 06:03:28;;;;;;;16.33;7.82;;;2.30;71.20;;;;;;4218375;28;20039;-86
2023/01/24 06:05:50;;;;;;;19.40;11.38;;;2.30;71.20;;;;;;4222052;28;20115;-84
2023/01/24 06:08:09;;;;;;;20.88;11.98;;;2.30;71.30;;;;;;4225589;28;20043;-84
2023/01/24 06:10:28;;;;;;;20.85;13.45;;;2.30;71.40;;;;;;4217213;28;20504;-85
2023/01/24 06:12:47;;;;;;;18.50;10.50;;;2.30;71.50;;;;;;4219806;28;20046;-85
2023/01/24 06:15:07;;;;;;;15.50;8.93;;;2.30;71.50;;;;;;4223794;28;20538;-84
2023/01/24 06:17:26;;;;;;;16.42;8.93;;;2.30;71.50;;;;;;4224344;28;20397;-84
2023/01/24 06:19:45;;;;;;;16.45;7.93;;;2.30;71.60;;;;;;4224945;28;20077;-85
2023/01/24 06:22:19;;;;;;;12.73;7.68;;;2.30;71.60;;;;;;4230007;28;20435;-84
2023/01/24 06:24:39;;;;;;;12.30;7.55;;;2.30;71.50;;;;;;4220998;28;20053;-84
2023/01/24 06:26:58;;;;;;;14.00;8.15;;;2.30;71.40;;;;;;4211248;28;20111;-85
2023/01/24 06:29:19;;;;;;;16.08;8.15;;;2.30;71.40;;;;;;4218721;28;20073;-84
2023/01/24 06:32:00;;;;;;;15.02;7.05;;;2.30;71.50;;;;;;4219765;28;20036;-85
2023/01/24 06:34:37;;;;;;;12.90;7.50;;;2.30;71.40;;;;;;4222143;28;20140;-85
2023/01/24 06:37:32;;;;;;;13.98;7.68;;;2.30;71.40;;;;;;4210173;28;20035;-85
2023/01/24 06:39:53;;;;;;;15.18;8.60;;;2.30;71.30;;;;;;4204974;28;20050;-85
2023/01/24 06:42:12;;;;;;;15.55;8.50;;;2.30;71.10;;;;;;4218714;28;20914;-85
2023/01/24 06:44:32;;;;;;;16.08;8.02;;;2.30;71.20;;;;;;4222982;28;20042;-84
2023/01/24 06:46:51;;;;;;;12.68;7.55;;;2.30;71.20;;;;;;4212244;27;20105;-84
2023/01/24 06:49:11;;;;;;;13.63;7.28;;;2.20;71.20;;;;;;4228667;27;20600;-85
2023/01/24 06:51:30;;;;;;;13.27;7.53;;;2.20;71.30;;;;;;4216607;28;20500;-84
2023/01/24 06:53:49;;;;;;;16.52;7.72;;;2.20;71.30;;;;;;4216959;28;20405;-84
2023/01/24 06:56:09;;;;;;;14.23;8.02;;;2.30;71.40;;;;;;4223315;27;20059;-84
2023/01/24 06:58:28;;;;;;;13.75;7.35;;;2.20;71.20;;;;;;4228200;27;20031;-84
2023/01/24 07:00:47;;;;;;;13.63;7.65;;;2.20;72.10;;;;;;4226924;27;20046;-84
2023/01/24 07:03:07;;;;;;;14.80;7.90;;;2.20;71.40;;;;;;4225143;27;20406;-83
2023/01/24 07:05:27;;;;;;;19.70;8.10;;;2.20;71.50;;;;;;4229482;28;20035;-84
2023/01/24 07:07:46;;;;;;;15.88;8.13;;;2.20;71.40;;;;;;4225441;27;20058;-83
2023/01/24 07:10:06;;;;;;;14.50;8.13;;;2.20;71.50;;;;;;4215610;28;20099;-84
2023/01/24 07:12:25;;;;;;;14.10;8.20;;;2.20;71.50;;;;;;4224598;28;20574;-84
2023/01/24 07:14:44;;;;;;;17.45;8.57;;;2.20;71.50;;;;;;4231783;27;20496;-84
2023/01/24 07:17:04;;;;;;;12.70;7.90;;;2.20;71.50;;;;;;4231257;27;20089;-85
2023/01/24 07:19:25;;;;;;;15.18;8.23;;;2.30;71.60;;;;;;4227091;27;20035;-84
2023/01/24 07:21:45;;;;;;;16.15;8.10;;;2.20;71.40;;;;;;4225651;28;20443;-84
2023/01/24 07:24:14;;;;;;;14.73;8.68;;;2.20;71.50;;;;;;4234617;27;20030;-85
2023/01/24 07:26:33;;;;;;;15.05;8.45;;;2.20;71.40;;;;;;4229125;27;20101;-84
2023/01/24 07:28:53;;;;;;;17.35;8.23;;;2.30;71.50;;;;;;4215987;28;20038;-84
2023/01/24 07:31:14;;;;;;;17.58;9.32;;;2.20;71.50;;;;;;4226543;27;20050;-84
2023/01/24 07:33:33;;;;;;;13.20;8.40;;;2.20;71.50;;;;;;4213480;28;20138;-84
2023/01/24 07:35:52;;;;;;;13.50;8.55;;;2.20;71.50;;;;;;4221385;28;20046;-84
2023/01/24 07:38:12;;;;;;;15.77;8.82;;;2.30;71.60;;;;;;4229047;27;20057;-85
2023/01/24 07:40:31;;;;;;;14.48;8.15;;;2.30;71.60;;;;;;4225089;27;20584;-85
2023/01/24 07:42:51;;;;;;;15.70;8.75;;;2.20;71.50;;;;;;4232213;27;20043;-84
2023/01/24 07:45:10;;;;;;;15.38;8.27;;;2.20;72.30;;;;;;4230480;27;20054;-84
2023/01/24 07:47:30;;;;;;;15.98;8.65;;;2.20;71.50;;;;;;4230133;27;20065;-85
2023/01/24 07:49:49;;;;;;;16.13;9.38;;;2.20;71.40;;;;;;4221975;28;20046;-84
2023/01/24 07:52:08;;;;;;;14.20;8.48;;;2.20;71.40;;;;;;4224804;27;20111;-84
2023/01/24 07:54:27;;;;;;;16.42;8.35;;;2.20;71.40;;;;;;4223449;27;20058;-84
2023/01/24 07:56:46;;;;;;;15.07;8.52;;;2.20;71.30;;;;;;4214869;27;20425;-84
2023/01/24 07:59:05;;;;;;;13.52;8.30;;;2.20;71.30;;;;;;4213222;28;20112;-84
2023/01/24 08:01:26;;;;;;;16.70;8.70;;;2.20;71.20;;;;;;4226539;27;20066;-84
2023/01/24 08:03:45;;;;;;;18.98;8.98;;;2.20;71.20;;;;;;4226357;27;20092;-84
2023/01/24 08:06:05;;;;;;;21.63;9.65;;;2.20;71.30;;;;;;4229849;27;20108;-85
2023/01/24 08:08:25;;;;;;;17.83;8.98;;;2.20;71.40;;;;;;4227024;27;20070;-84
2023/01/24 08:10:45;;;;;;;15.27;9.38;;;2.20;71.40;;;;;;4222595;28;20039;-84
2023/01/24 08:13:04;;;;;;;17.42;8.98;;;2.20;71.60;;;;;;4215882;28;20035;-84
2023/01/24 08:15:23;;;;;;;16.98;8.75;;;2.20;71.60;;;;;;4231786;27;20077;-85
2023/01/24 08:17:42;;;;;;;17.00;10.00;;;2.20;71.60;;;;;;4214432;27;20039;-84
2023/01/24 08:20:02;;;;;;;18.65;10.10;;;2.20;71.60;;;;;;4230814;27;20217;-84
2023/01/24 08:22:21;;;;;;;18.90;10.13;;;2.20;71.70;;;;;;4217277;28;20043;-85
2023/01/24 08:24:40;;;;;;;18.92;9.90;;;2.20;71.60;;;;;;4232288;27;20038;-84
2023/01/24 08:27:01;;;;;;;21.05;10.30;;;2.20;71.60;;;;;;4226911;28;20034;-84
2023/01/24 08:29:20;;;;;;;19.77;10.23;;;2.20;71.60;;;;;;4225553;27;20042;-85
2023/01/24 08:31:39;;;;;;;25.63;10.68;;;2.20;71.70;;;;;;4227523;27;20516;-85
2023/01/24 08:33:58;;;;;;;17.92;9.32;;;2.20;71.70;;;;;;4232088;27;20030;-84
2023/01/24 08:36:23;;;;;;;19.30;11.05;;;2.20;71.60;;;;;;4217473;28;20053;-84
2023/01/24 08:38:43;;;;;;;18.58;10.45;;;2.20;71.50;;;;;;4231635;27;20423;-84
2023/01/24 08:41:05;;;;;;;22.10;11.45;;;2.30;71.60;;;;;;4229147;27;20511;-84
2023/01/24 08:43:24;;;;;;;19.75;10.80;;;2.30;71.60;;;;;;4230329;27;20112;-83
2023/01/24 08:45:44;;;;;;;20.45;10.43;;;2.40;71.70;;;;;;4226814;27;20100;-85
2023/01/24 08:48:04;;;;;;;21.33;10.07;;;2.30;71.60;;;;;;4214960;28;20035;-84
2023/01/24 08:50:23;;;;;;;20.77;10.82;;;2.30;71.50;;;;;;4223584;28;20043;-84
2023/01/24 08:52:43;;;;;;;21.70;10.50;;;2.30;71.40;;;;;;4229175;27;20046;-85
2023/01/24 08:55:02;;;;;;;22.73;10.57;;;2.30;71.50;;;;;;4215723;27;20068;-84
2023/01/24 08:57:21;;;;;;;21.25;10.57;;;2.30;71.50;;;;;;4218748;28;20070;-85
2023/01/24 08:59:40;;;;;;;19.35;9.90;;;2.30;71.50;;;;;;4209437;28;20044;-84
2023/01/24 09:01:59;;;;;;;21.23;10.02;;;2.30;71.50;;;;;;4230468;27;20037;-84
2023/01/24 09:04:18;;;;;;;19.88;10.15;;;2.40;71.60;;;;;;4230802;27;20488;-84
2023/01/24 09:06:38;;;;;;;22.73;11.27;;;2.40;71.60;;;;;;4233319;27;20059;-84
2023/01/24 09:08:57;;;;;;;19.30;10.50;;;2.40;71.50;;;;;;4216459;28;20050;-84
2023/01/24 09:11:16;;;;;;;19.27;10.43;;;2.40;71.40;;;;;;4228236;27;20517;-85
2023/01/24 09:13:35;;;;;;;22.67;10.75;;;2.40;71.30;;;;;;4225791;27;20038;-84
2023/01/24 09:15:57;;;;;;;19.77;10.88;;;2.40;71.20;;;;;;4210033;28;20027;-84
2023/01/24 09:18:17;;;;;;;19.33;9.93;;;2.40;71.20;;;;;;4224353;27;20121;-84
2023/01/24 09:20:36;;;;;;;20.48;10.30;;;2.40;71.30;;;;;;4224407;27;20471;-84
2023/01/24 09:22:55;;;;;;;19.67;9.48;;;2.40;71.20;;;;;;4225166;27;20131;-82
2023/01/24 09:25:14;;;;;;;21.48;10.98;;;2.40;71.10;;;;;;4224356;27;20153;-84
2023/01/24 09:27:34;;;;;;;16.67;9.63;;;2.40;71.80;;;;;;4212425;28;20668;-84
2023/01/24 09:29:54;;;;;;;17.88;9.75;;;2.40;71.10;;;;;;4227436;27;20038;-85
2023/01/24 09:32:13;;;;;;;23.77;10.07;;;2.50;71.30;;;;;;4226615;27;20410;-84
2023/01/24 09:34:32;;;;;;;22.05;10.80;;;2.50;71.20;;;;;;4226567;27;20038;-85
2023/01/24 09:36:51;;;;;;;20.23;10.32;;;2.50;71.10;;;;;;4219871;27;20112;-84
2023/01/24 09:39:10;;;;;;;21.52;10.73;;;2.50;71.00;;;;;;4208849;28;20138;-84
2023/01/24 09:41:44;;;;;;;19.10;10.60;;;2.50;71.10;;;;;;4206939;28;20046;-84
2023/01/24 09:44:27;;;;;;;23.45;10.93;;;2.60;71.20;;;;;;4209202;28;20031;-84
2023/01/24 09:46:50;;;;;;;19.67;10.57;;;2.60;71.20;;;;;;4224833;27;20066;-84
2023/01/24 09:49:28;;;;;;;21.95;10.38;;;2.60;71.10;;;;;;4225856;27;20055;-84
2023/01/24 09:51:51;;;;;;;19.45;10.15;;;2.60;71.00;;;;;;4227466;27;20113;-84
2023/01/24 09:54:21;;;;;;;24.90;11.20;;;2.60;71.10;;;;;;4223503;27;20031;-84
2023/01/24 09:56:45;;;;;;;25.15;11.05;;;2.70;71.10;;;;;;4228153;27;20279;-83
2023/01/24 09:59:21;;;;;;;20.65;10.15;;;2.60;71.00;;;;;;4207728;28;20062;-83
2023/01/24 10:01:41;;;;;;;22.08;10.30;;;2.70;71.00;;;;;;4227760;27;20118;-85
2023/01/24 10:04:00;;;;;;;24.67;11.13;;;2.70;71.10;;;;;;4206891;28;20051;-84
2023/01/24 10:06:26;;;;;;;18.67;10.15;;;2.70;71.00;;;;;;4217587;28;20127;-83
2023/01/24 10:09:01;;;;;;;20.40;10.20;;;2.70;70.80;;;;;;4213313;27;20094;-84
2023/01/24 10:11:39;;;;;;;16.85;8.93;;;2.70;70.70;;;;;;4223015;27;20116;-84
2023/01/24 10:14:17;;;;;;;15.50;8.90;;;2.80;70.70;;;;;;4223670;28;20030;-84
2023/01/24 10:16:36;;;;;;;17.30;9.88;;;2.80;70.70;;;;;;4216689;28;20110;-83
2023/01/24 10:19:32;;;;;;;18.52;8.88;;;2.80;70.60;;;;;;4213969;28;20050;-85
2023/01/24 10:22:12;;;;;;;16.88;9.63;;;2.80;70.60;;;;;;4224523;27;20144;-84
2023/01/24 10:24:36;;;;;;;20.17;8.57;;;2.90;70.60;;;;;;4227681;28;20073;-84
2023/01/24 10:26:56;;;;;;;18.63;9.38;;;2.90;70.20;;;;;;4225396;28;20040;-84
2023/01/24 10:29:17;;;;;;;18.35;9.10;;;2.90;70.30;;;;;;4226049;28;20049;-84
2023/01/24 10:31:41;;;;;;;17.92;9.52;;;2.90;70.20;;;;;;4223671;28;20088;-84
2023/01/24 10:34:12;;;;;;;16.35;8.68;;;2.90;70.10;;;;;;4224091;28;20031;-85
2023/01/24 10:36:43;;;;;;;17.25;9.55;;;3.00;70.20;;;;;;4224192;28;20094;-84
2023/01/24 10:39:02;;;;;;;14.82;8.55;;;3.00;70.00;;;;;;4223947;28;20027;-84
2023/01/24 10:41:24;;;;;;;23.52;9.60;;;3.00;69.90;;;;;;4224907;28;20580;-84
2023/01/24 10:43:59;;;;;;;14.60;8.50;;;3.00;69.40;;;;;;4230041;28;20062;-84
2023/01/24 10:46:27;;;;;;;14.38;8.63;;;3.00;69.40;;;;;;4226979;28;20116;-85
2023/01/24 10:48:50;;;;;;;16.80;8.55;;;3.00;69.50;;;;;;4226987;28;20037;-84
2023/01/24 10:51:16;;;;;;;20.75;9.88;;;3.00;69.60;;;;;;4219202;28;20038;-83
2023/01/24 10:53:35;;;;;;;18.20;9.20;;;3.00;69.70;;;;;;4227204;28;20027;-84
2023/01/24 10:56:03;;;;;;;17.38;9.65;;;3.00;69.60;;;;;;4211728;28;20042;-84
2023/01/24 10:58:34;;;;;;;20.65;8.63;;;3.10;69.70;;;;;;4222502;28;20039;-85
2023/01/24 11:00:59;;;;;;;13.48;7.53;;;3.20;69.70;;;;;;4226035;28;20058;-84
2023/01/24 11:03:29;;;;;;;16.75;9.07;;;3.10;69.70;;;;;;4209299;28;20107;-83
2023/01/24 11:05:52;;;;;;;21.58;9.40;;;3.10;69.50;;;;;;4210145;28;20035;-84
2023/01/24 11:08:21;;;;;;;17.75;8.45;;;3.20;69.30;;;;;;4225420;28;20294;-84
2023/01/24 11:10:41;;;;;;;22.05;8.52;;;3.20;69.20;;;;;;4215588;28;20074;-85
2023/01/24 11:13:02;;;;;;;17.52;8.95;;;3.20;69.20;;;;;;4230898;28;20024;-84
2023/01/24 11:15:33;;;;;;;17.35;9.95;;;3.20;69.40;;;;;;4207623;28;20043;-85
2023/01/24 11:17:58;;;;;;;17.60;9.70;;;3.20;69.10;;;;;;4215727;28;20035;-84
2023/01/24 11:20:26;;;;;;;17.90;9.35;;;3.20;69.00;;;;;;4228073;28;20043;-85
2023/01/24 11:22:50;;;;;;;17.65;10.15;;;3.30;69.20;;;;;;4214004;28;20053;-85
2023/01/24 11:25:14;;;;;;;17.95;9.68;;;3.30;69.00;;;;;;4222223;28;20060;-84
2023/01/24 11:27:45;;;;;;;17.10;9.55;;;3.30;68.90;;;;;;4221578;28;20120;-84
2023/01/24 11:30:20;;;;;;;15.80;9.40;;;3.40;68.70;;;;;;4206495;28;20062;-84
2023/01/24 11:33:05;;;;;;;19.95;9.90;;;3.30;68.60;;;;;;4222205;27;20089;-84
2023/01/24 11:35:34;;;;;;;23.45;10.20;;;3.30;68.50;;;;;;4214133;28;20054;-85
2023/01/24 11:38:21;;;;;;;18.17;10.88;;;3.30;68.50;;;;;;4219518;27;20077;-84
2023/01/24 11:40:49;;;;;;;20.15;10.23;;;3.30;67.90;;;;;;4212227;27;20049;-84
2023/01/24 11:43:30;;;;;;;18.52;8.95;;;3.30;68.10;;;;;;4228941;27;20034;-84
2023/01/24 11:46:24;;;;;;;17.00;9.98;;;3.30;68.30;;;;;;4227842;27;20046;-85
2023/01/24 11:48:54;;;;;;;17.40;9.45;;;3.30;68.20;;;;;;4224720;27;20046;-85
2023/01/24 11:51:22;;;;;;;18.08;10.27;;;3.30;68.10;;;;;;4228669;27;20661;-84
2023/01/24 11:53:50;;;;;;;22.10;11.45;;;3.30;68.30;;;;;;4225116;27;20042;-84
2023/01/24 11:56:38;;;;;;;19.60;11.38;;;3.30;68.40;;;;;;4229670;27;20103;-84
2023/01/24 11:59:32;;;;;;;19.55;11.05;;;3.30;68.10;;;;;;4215360;28;20032;-84
2023/01/24 12:02:00;;;;;;;21.52;12.23;;;3.30;67.90;;;;;;4226560;27;20055;-84
2023/01/24 12:04:29;;;;;;;20.08;11.35;;;3.30;68.00;;;;;;4227909;27;20120;-84
2023/01/24 12:07:06;;;;;;;19.77;10.65;;;3.30;68.20;;;;;;4218675;27;20090;-84
2023/01/24 12:09:52;;;;;;;17.48;9.85;;;3.30;68.40;;;;;;4218681;28;20067;-84
2023/01/24 12:12:30;;;;;;;17.63;9.73;;;3.30;68.40;;;;;;4192166;28;20081;-84
2023/01/24 12:15:02;;;;;;;18.67;10.43;;;3.30;68.30;;;;;;4228566;27;20033;-84
2023/01/24 12:17:35;;;;;;;21.92;10.95;;;3.30;68.30;;;;;;4229688;27;20047;-83
2023/01/24 12:20:22;;;;;;;23.20;12.30;;;3.40;68.30;;;;;;4214452;28;20042;-85
2023/01/24 12:22:41;;;;;;;20.85;12.10;;;3.40;68.10;;;;;;4228159;27;20113;-84
2023/01/24 12:25:25;;;;;;;20.67;12.10;;;3.40;68.10;;;;;;4225385;27;20085;-84
2023/01/24 12:27:45;;;;;;;24.17;12.38;;;3.40;67.80;;;;;;4210001;28;20079;-84
2023/01/24 12:30:27;;;;;;;25.67;12.63;;;3.40;67.80;;;;;;4222579;28;20444;-85
2023/01/24 12:32:51;;;;;;;20.85;12.18;;;3.40;67.70;;;;;;4229432;27;20035;-83
2023/01/24 12:35:19;;;;;;;23.90;12.57;;;3.40;67.90;;;;;;4213040;28;20036;-85
2023/01/24 12:37:42;;;;;;;25.10;12.35;;;3.40;67.70;;;;;;4231578;27;20038;-85
2023/01/24 12:40:23;;;;;;;23.33;12.57;;;3.40;67.80;;;;;;4223902;27;20488;-84
2023/01/24 12:43:14;;;;;;;23.70;12.05;;;3.40;67.80;;;;;;4214949;27;20043;-84
2023/01/24 12:45:39;;;;;;;28.73;13.38;;;3.40;67.90;;;;;;4223254;27;20439;-84
2023/01/24 12:48:04;;;;;;;;;;;3.40;68.00;;;;;;4233352;27;20107;-84
2023/01/24 12:50:36;;;;;;;21.50;12.65;;;3.40;67.60;;;;;;4222612;28;20518;-85
2023/01/24 12:53:04;;;;;;;23.20;11.75;;;3.40;67.90;;;;;;4222509;27;20063;-85
2023/01/24 12:56:00;;;;;;;21.80;11.90;;;3.50;68.20;;;;;;4209886;28;20035;-84
2023/01/24 12:58:27;;;;;;;27.10;12.95;;;3.50;67.80;;;;;;4213272;28;20043;-84
2023/01/24 13:01:05;;;;;;;23.80;12.65;;;3.50;68.00;;;;;;4224260;28;20066;-85